Time;durP1;ratioP1;P1;durP2;ratioP2;P2;SDS_P1;SDS_P2;PMS_P1;PMS_P2;Temp;Humidity;BMP_temperature;BMP_pressure;BME280_temperature;BME280_humidity;BME280_pressure;Samples;Min_cycle;Max_cycle;Signal;HPM_P1;HPM_P2
2024/02/19 00:00:25;;;;;;;;;;;;;;;24.00;36.24;102733.59;4133459;28;19957;-65
2024/02/19 00:02:27;;;;;;;;;;;;;;;24.00;36.17;102721.03;4116474;28;19926;-65
2024/02/19 00:04:28;;;;;;;;;;;;;;;23.99;36.13;102722.00;4133792;28;20016;-66
2024/02/19 00:06:30;;;;;;;;;;;;;;;24.00;36.22;102728.22;4133695;28;20016;-67
2024/02/19 00:08:32;;;;;;;;;;;;;;;24.01;36.11;102720.09;4116458;28;20008;-66
2024/02/19 00:10:34;;;;;;;;;;;;;;;24.02;36.25;102716.44;4133860;28;20296;-66
2024/02/19 00:12:36;;;;;;;;;;;;;;;24.02;36.23;102723.63;4133630;28;19973;-67
2024/02/19 00:14:38;;;;;;;;;;;;;;;24.02;36.32;102710.19;4125216;28;19926;-66
2024/02/19 00:16:40;;;;;;;;;;;;;;;24.03;36.03;102720.00;4133496;28;20265;-66
2024/02/19 00:18:44;;;;;;;;;;;;;;;24.02;36.20;102716.44;4133519;28;19926;-67
2024/02/19 00:20:46;;;;;;;;;;;;;;;24.03;36.04;102725.38;4133624;28;20016;-67
2024/02/19 00:22:48;;;;;;;;;;;;;;;24.03;35.97;102717.31;4133412;28;19926;-66
2024/02/19 00:24:50;;;;;;;;;;;;;;;24.02;35.96;102711.06;4133614;28;20016;-66
2024/02/19 00:26:52;;;;;;;;;;;;;;;24.01;36.03;102714.72;4133328;28;19965;-67
2024/02/19 00:28:54;;;;;;;;;;;;;;;24.00;36.10;102725.53;4133294;28;19925;-66
2024/02/19 00:30:56;;;;;;;;;;;;;;;23.99;36.34;102726.53;4133522;28;19926;-66
2024/02/19 00:32:58;;;;;;;;;;;;;;;23.99;36.07;102732.75;4133243;28;19926;-66
2024/02/19 00:35:00;;;;;;;;;;;;;;;24.00;36.07;102726.41;4133423;28;19933;-66
2024/02/19 00:37:02;;;;;;;;;;;;;;;24.03;36.04;102725.38;4133476;28;19957;-66
2024/02/19 00:39:03;;;;;;;;;;;;;;;24.03;36.02;102733.44;4133139;28;19989;-67
2024/02/19 00:41:05;;;;;;;;;;;;;;;24.03;35.98;102730.75;4133027;28;19926;-66
2024/02/19 00:43:07;;;;;;;;;;;;;;;24.03;35.97;102736.13;4132493;28;19929;-66
2024/02/19 00:45:08;;;;;;;;;;;;;;;24.03;36.25;102739.66;4115956;28;19946;-66
2024/02/19 00:47:13;;;;;;;;;;;;;;;24.03;35.95;102728.06;4131832;28;19925;-67
2024/02/19 00:49:14;;;;;;;;;;;;;;;24.02;36.10;102726.31;4133069;28;19933;-67
2024/02/19 00:51:16;;;;;;;;;;;;;;;24.03;36.27;102734.28;4115922;28;19970;-67
2024/02/19 00:53:18;;;;;;;;;;;;;;;24.03;35.94;102723.53;4133180;28;19969;-67
2024/02/19 00:55:20;;;;;;;;;;;;;;;24.04;35.85;102727.94;4133106;28;19932;-67
2024/02/19 00:57:22;;;;;;;;;;;;;;;24.03;35.92;102722.69;4132770;28;19926;-67
2024/02/19 00:59:25;;;;;;;;;;;;;;;24.02;36.12;102720.94;4115632;28;20356;-67
2024/02/19 01:01:27;;;;;;;;;;;;;;;24.01;36.00;102722.78;4132905;28;19976;-66
2024/02/19 01:03:29;;;;;;;;;;;;;;;23.99;36.28;102713.94;4132712;28;19968;-66
2024/02/19 01:05:32;;;;;;;;;;;;;;;24.00;36.28;102723.72;4115579;28;20429;-67
2024/02/19 01:07:35;;;;;;;;;;;;;;;24.01;36.10;102721.91;4132961;28;19926;-67
2024/02/19 01:09:36;;;;;;;;;;;;;;;24.01;36.00;102724.59;4132733;28;20461;-67
2024/02/19 01:11:38;;;;;;;;;;;;;;;24.02;36.25;102711.06;4132449;28;19987;-66
2024/02/19 01:13:41;;;;;;;;;;;;;;;24.02;35.98;102708.38;4132770;28;19929;-67
2024/02/19 01:15:43;;;;;;;;;;;;;;;24.02;35.94;102711.06;4132658;28;20454;-66
2024/02/19 01:17:44;;;;;;;;;;;;;;;24.02;35.89;102704.81;4132700;28;19925;-66
2024/02/19 01:19:46;;;;;;;;;;;;;;;24.02;36.25;102707.50;4132554;28;19930;-66
2024/02/19 01:21:50;;;;;;;;;;;;;;;24.03;36.09;102720.00;4132597;28;19929;-67
2024/02/19 01:23:52;;;;;;;;;;;;;;;24.02;35.89;102715.56;4115333;28;20323;-66
2024/02/19 01:25:53;;;;;;;;;;;;;;;24.02;36.27;102720.94;4132400;28;20024;-66
2024/02/19 01:27:55;;;;;;;;;;;;;;;24.02;36.03;102724.50;4132506;28;19934;-66
2024/02/19 01:29:57;;;;;;;;;;;;;;;24.01;36.11;102722.78;4132569;28;19929;-66
2024/02/19 01:31:59;;;;;;;;;;;;;;;24.02;35.78;102718.25;4132514;28;20341;-66
2024/02/19 01:34:00;;;;;;;;;;;;;;;24.00;36.03;102722.84;4099474;28;19933;-66
2024/02/19 01:36:02;;;;;;;;;;;;;;;23.99;35.97;102718.47;4116221;28;19980;-67
2024/02/19 01:38:04;;;;;;;;;;;;;;;23.98;36.12;102719.41;4116345;28;19930;-66
2024/02/19 01:40:09;;;;;;;;;;;;;;;23.96;35.84;102724.84;4116032;28;19926;-66
2024/02/19 01:42:11;;;;;;;;;;;;;;;23.96;36.12;102729.38;4116266;28;20475;-65
2024/02/19 01:44:12;;;;;;;;;;;;;;;23.93;36.00;102731.28;4116158;28;19933;-65
2024/02/19 01:46:15;;;;;;;;;;;;;;;23.92;35.90;102725.97;4116162;28;19926;-66
2024/02/19 01:48:17;;;;;;;;;;;;;;;23.91;35.79;102732.31;4116031;28;20009;-67
2024/02/19 01:50:19;;;;;;;;;;;;;;;23.89;36.08;102728.84;4116129;28;20000;-67
2024/02/19 01:52:21;;;;;;;;;;;;;;;23.88;35.92;102724.44;4116377;28;20431;-67
2024/02/19 01:54:23;;;;;;;;;;;;;;;23.87;36.02;102725.41;4115961;28;20411;-68
2024/02/19 01:56:24;;;;;;;;;;;;;;;23.85;35.91;102725.50;4115656;28;19930;-67
2024/02/19 01:58:26;;;;;;;;;;;;;;;23.83;36.30;102723.84;4115616;28;19973;-67
2024/02/19 02:00:28;;;;;;;;;;;;;;;23.80;36.24;102724.03;4098746;29;19930;-67
2024/02/19 02:02:30;;;;;;;;;;;;;;;23.76;36.14;102724.22;4115956;28;20379;-67
2024/02/19 02:04:32;;;;;;;;;;;;;;;23.74;36.03;102717.19;4115602;28;19973;-67
2024/02/19 02:06:34;;;;;;;;;;;;;;;23.74;36.00;102715.41;4116046;28;20384;-67
2024/02/19 02:08:40;;;;;;;;;;;;;;;23.72;36.29;102706.56;4115729;28;19926;-67
2024/02/19 02:10:42;;;;;;;;;;;;;;;23.58;36.45;102687.72;4115533;28;19930;-67
2024/02/19 02:12:44;;;;;;;;;;;;;;;23.69;36.17;102701.34;4115859;28;19989;-68
2024/02/19 02:14:45;;;;;;;;;;;;;;;23.67;36.43;102707.78;4115803;28;20018;-67
2024/02/19 02:16:47;;;;;;;;;;;;;;;23.66;36.43;102708.72;4115551;28;19930;-67
2024/02/19 02:18:48;;;;;;;;;;;;;;;23.65;36.25;102707.03;4115612;28;19933;-66
2024/02/19 02:20:54;;;;;;;;;;;;;;;23.62;36.24;102705.38;4115711;28;19926;-67
2024/02/19 02:22:57;;;;;;;;;;;;;;;23.61;36.30;102703.66;4115936;28;20005;-67
2024/02/19 02:25:00;;;;;;;;;;;;;;;23.58;36.50;102706.50;4115343;28;20013;-67
2024/02/19 02:27:02;;;;;;;;;;;;;;;23.57;36.46;102707.47;4115644;28;20272;-66
2024/02/19 02:29:03;;;;;;;;;;;;;;;23.57;36.45;102708.34;4115733;28;20063;-66
2024/02/19 02:31:06;;;;;;;;;;;;;;;23.58;36.46;102707.38;4115772;28;19945;-66
2024/02/19 02:33:08;;;;;;;;;;;;;;;23.59;36.75;102710.94;4124088;28;20418;-66
2024/02/19 02:35:10;;;;;;;;;;;;;;;23.59;36.34;102711.78;4131809;28;19977;-66
2024/02/19 02:37:12;;;;;;;;;;;;;;;23.60;36.69;102708.16;4131983;28;19926;-66
2024/02/19 02:39:14;;;;;;;;;;;;;;;23.61;36.45;102712.56;4131117;28;19973;-66
2024/02/19 02:41:16;;;;;;;;;;;;;;;23.63;36.50;102707.09;4131733;28;19925;-66
2024/02/19 02:43:18;;;;;;;;;;;;;;;23.65;36.35;102712.41;4131503;28;20383;-67
2024/02/19 02:45:19;;;;;;;;;;;;;;;23.66;36.54;102714.09;4131592;28;20009;-67
2024/02/19 02:47:21;;;;;;;;;;;;;;;23.66;36.77;102714.09;4131682;28;19980;-66
2024/02/19 02:49:23;;;;;;;;;;;;;;;23.66;36.61;102709.63;4131737;28;19934;-67
2024/02/19 02:51:25;;;;;;;;;;;;;;;23.65;36.63;102710.56;4131421;28;19932;-67
2024/02/19 02:53:26;;;;;;;;;;;;;;;23.66;36.28;102706.94;4131087;28;19976;-66
2024/02/19 02:55:28;;;;;;;;;;;;;;;23.66;36.75;102706.94;4131533;28;19942;-66
2024/02/19 02:57:29;;;;;;;;;;;;;;;23.67;36.35;102708.66;4131299;28;19981;-66
2024/02/19 02:59:31;;;;;;;;;;;;;;;23.68;36.43;102710.41;4114323;28;19965;-66
2024/02/19 03:01:33;;;;;;;;;;;;;;;23.70;36.34;102711.16;4131574;28;20434;-66
2024/02/19 03:03:35;;;;;;;;;;;;;;;23.72;36.50;102711.94;4131433;28;19934;-67
2024/02/19 03:05:39;;;;;;;;;;;;;;;23.75;36.67;102709.03;4131526;28;19926;-66
2024/02/19 03:07:40;;;;;;;;;;;;;;;23.77;36.16;102704.44;4131099;28;20017;-67
2024/02/19 03:09:42;;;;;;;;;;;;;;;23.78;36.37;102710.72;4131668;28;19965;-67
2024/02/19 03:11:44;;;;;;;;;;;;;;;23.80;36.26;102713.28;4134847;28;19926;-66
2024/02/19 03:13:45;;;;;;;;;;;;;;;23.80;36.28;102713.28;4134565;28;19926;-67
2024/02/19 03:15:47;;;;;;;;;;;;;;;23.80;36.52;102722.22;4134827;28;19932;-67
2024/02/19 03:17:48;;;;;;;;;;;;;;;23.80;36.31;102716.84;4134604;28;19934;-67
2024/02/19 03:19:50;;;;;;;;;;;;;;;23.80;36.28;102719.53;4134391;28;19925;-67
2024/02/19 03:21:54;;;;;;;;;;;;;;;23.78;36.05;102713.41;4134164;28;19964;-67
2024/02/19 03:23:57;;;;;;;;;;;;;;;23.79;36.55;102715.09;4117091;28;19926;-68
2024/02/19 03:25:59;;;;;;;;;;;;;;;23.81;36.30;102723.09;4134247;28;19977;-67
2024/02/19 03:28:00;;;;;;;;;;;;;;;23.83;36.41;102726.53;4117192;28;19926;-66
2024/02/19 03:30:02;;;;;;;;;;;;;;;23.84;36.29;102722.88;4134410;28;19934;-68
2024/02/19 03:32:04;;;;;;;;;;;;;;;23.85;36.34;102724.63;4133963;28;19988;-68
2024/02/19 03:34:05;;;;;;;;;;;;;;;23.87;36.40;102718.19;4134302;28;20012;-67
2024/02/19 03:36:08;;;;;;;;;;;;;;;23.89;36.16;102712.72;4134072;28;19933;-67
2024/02/19 03:38:09;;;;;;;;;;;;;;;23.89;36.15;102710.03;4134096;28;19972;-67
2024/02/19 03:40:11;;;;;;;;;;;;;;;23.90;36.15;102714.44;4134338;28;19980;-66
2024/02/19 03:42:13;;;;;;;;;;;;;;;23.91;36.13;102706.31;4134214;28;19926;-67
2024/02/19 03:44:15;;;;;;;;;;;;;;;23.92;36.08;102712.53;4134071;28;19929;-66
2024/02/19 03:46:17;;;;;;;;;;;;;;;23.92;36.07;102715.22;4134165;28;20312;-66
2024/02/19 03:48:18;;;;;;;;;;;;;;;23.91;36.38;102714.38;4134313;28;19930;-67
2024/02/19 03:50:23;;;;;;;;;;;;;;;23.90;36.37;102712.66;4133917;28;19925;-66
2024/02/19 03:52:24;;;;;;;;;;;;;;;23.91;36.15;102717.06;4133873;28;19929;-66
2024/02/19 03:54:26;;;;;;;;;;;;;;;23.91;36.33;102716.19;4134016;28;20013;-66
2024/02/19 03:56:28;;;;;;;;;;;;;;;23.93;36.19;102717.00;4134177;28;19997;-66
2024/02/19 03:58:29;;;;;;;;;;;;;;;23.94;36.24;102707.97;4134081;28;19933;-66
2024/02/19 04:00:31;;;;;;;;;;;;;;;23.96;36.28;102707.88;4134093;28;19994;-66
2024/02/19 04:02:32;;;;;;;;;;;;;;;23.97;36.36;102709.63;4134204;28;19925;-66
2024/02/19 04:04:34;;;;;;;;;;;;;;;23.99;36.11;102713.09;4133928;28;19932;-68
2024/02/19 04:06:35;;;;;;;;;;;;;;;23.99;36.34;102710.41;4133519;28;19926;-66
2024/02/19 04:08:38;;;;;;;;;;;;;;;23.99;36.16;102708.56;4133820;28;19926;-67
2024/02/19 04:10:40;;;;;;;;;;;;;;;24.01;36.28;102708.47;4134026;28;19926;-67
2024/02/19 04:12:41;;;;;;;;;;;;;;;24.01;35.96;102708.47;4133661;28;20012;-67
2024/02/19 04:14:43;;;;;;;;;;;;;;;24.00;36.08;102707.59;4133546;28;19926;-67
2024/02/19 04:16:45;;;;;;;;;;;;;;;23.76;36.05;102675.84;4133745;28;20454;-67
2024/02/19 04:18:46;;;;;;;;;;;;;;;24.02;36.31;102715.56;4133477;28;20446;-67
2024/02/19 04:20:48;;;;;;;;;;;;;;;24.00;35.96;102712.09;4132834;28;19996;-67
2024/02/19 04:22:50;;;;;;;;;;;;;;;24.01;36.21;102719.22;4133429;28;19926;-66
2024/02/19 04:24:51;;;;;;;;;;;;;;;24.01;36.15;102721.91;4133485;28;19932;-67
2024/02/19 04:26:53;;;;;;;;;;;;;;;24.02;36.10;102726.31;4116238;28;20322;-67
2024/02/19 04:28:56;;;;;;;;;;;;;;;24.03;36.04;102725.38;4133715;28;20040;-67
2024/02/19 04:30:57;;;;;;;;;;;;;;;24.03;36.32;102726.22;4133357;28;19926;-67
2024/02/19 04:32:59;;;;;;;;;;;;;;;24.04;36.26;102730.63;4133588;28;20346;-68
2024/02/19 04:35:01;;;;;;;;;;;;;;;24.06;36.13;102736.78;4132853;28;19932;-67
2024/02/19 04:37:03;;;;;;;;;;;;;;;24.07;36.42;102737.66;4133452;28;19968;-67
2024/02/19 04:39:05;;;;;;;;;;;;;;;24.06;36.05;102744.00;4133284;28;19925;-67
2024/02/19 04:41:06;;;;;;;;;;;;;;;24.06;36.21;102749.38;4133205;28;19941;-67
2024/02/19 04:43:08;;;;;;;;;;;;;;;24.07;36.30;102748.41;4133381;28;20315;-66
2024/02/19 04:45:09;;;;;;;;;;;;;;;24.06;36.01;102757.44;4133265;28;19930;-67
2024/02/19 04:47:11;;;;;;;;;;;;;;;24.06;36.07;102755.59;4133101;28;20330;-67
2024/02/19 04:49:13;;;;;;;;;;;;;;;24.05;36.21;102753.88;4132971;28;20387;-68
2024/02/19 04:51:14;;;;;;;;;;;;;;;24.04;36.12;102754.81;4132831;28;19933;-67
2024/02/19 04:53:18;;;;;;;;;;;;;;;24.04;36.34;102753.97;4133072;28;20184;-68
2024/02/19 04:55:20;;;;;;;;;;;;;;;24.04;36.27;102752.13;4133262;28;20204;-67
2024/02/19 04:57:22;;;;;;;;;;;;;;;24.05;35.96;102748.50;4133091;28;20369;-67
2024/02/19 04:59:23;;;;;;;;;;;;;;;24.06;35.94;102733.25;4133169;28;19926;-67
2024/02/19 05:01:30;;;;;;;;;;;;;;;24.06;36.27;102726.03;4133136;28;20016;-68
2024/02/19 05:03:31;;;;;;;;;;;;;;;24.08;35.99;102720.56;4132464;28;19933;-68
2024/02/19 05:05:33;;;;;;;;;;;;;;;24.10;36.05;102724.03;4132885;28;20021;-68
2024/02/19 05:07:35;;;;;;;;;;;;;;;24.10;35.97;102726.72;4133035;28;19925;-67
2024/02/19 05:09:37;;;;;;;;;;;;;;;24.10;36.03;102729.41;4132819;28;19925;-68
2024/02/19 05:11:39;;;;;;;;;;;;;;;24.10;36.31;102734.78;4132847;28;19930;-67
2024/02/19 05:13:40;;;;;;;;;;;;;;;24.08;35.95;102739.38;4132794;28;20395;-67
2024/02/19 05:15:42;;;;;;;;;;;;;;;24.08;36.23;102739.38;4133036;28;19932;-67
2024/02/19 05:17:46;;;;;;;;;;;;;;;24.08;35.95;102740.25;4132461;28;20334;-67
2024/02/19 05:19:47;;;;;;;;;;;;;;;24.08;36.25;102728.63;4132693;28;19926;-67
2024/02/19 05:21:49;;;;;;;;;;;;;;;24.06;35.99;102731.41;4132532;28;19932;-67
2024/02/19 05:23:51;;;;;;;;;;;;;;;24.06;36.26;102727.88;4132842;28;20021;-67
2024/02/19 05:25:52;;;;;;;;;;;;;;;24.07;36.11;102738.53;4132524;28;19926;-68
2024/02/19 05:27:57;;;;;;;;;;;;;;;24.07;36.25;102745.72;4132602;28;19926;-67
2024/02/19 05:29:59;;;;;;;;;;;;;;;24.09;35.89;102746.50;4132475;28;19972;-68
2024/02/19 05:32:00;;;;;;;;;;;;;;;24.10;36.23;102748.22;4132243;28;19977;-68
2024/02/19 05:34:02;;;;;;;;;;;;;;;24.11;36.01;102746.38;4131548;28;19933;-67
2024/02/19 05:36:04;;;;;;;;;;;;;;;24.12;36.03;102753.50;4132274;28;19925;-67
2024/02/19 05:38:06;;;;;;;;;;;;;;;24.11;36.13;102747.28;4132308;28;19932;-68
2024/02/19 05:40:08;;;;;;;;;;;;;;;24.12;36.00;102756.19;4132441;28;19933;-67
2024/02/19 05:42:10;;;;;;;;;;;;;;;24.11;35.82;102749.06;4115086;28;19926;-66
2024/02/19 05:44:14;;;;;;;;;;;;;;;24.11;35.98;102758.03;4132220;28;20307;-65
2024/02/19 05:46:16;;;;;;;;;;;;;;;24.11;36.16;102762.53;4132245;28;19984;-66
2024/02/19 05:48:17;;;;;;;;;;;;;;;24.10;35.79;102769.72;4131793;28;19972;-67
2024/02/19 05:50:19;;;;;;;;;;;;;;;24.08;36.07;102766.25;4132429;28;20269;-68
2024/02/19 05:52:21;;;;;;;;;;;;;;;24.07;36.10;102767.22;4132295;28;19930;-65
2024/02/19 05:54:23;;;;;;;;;;;;;;;24.08;36.17;102774.31;4132365;28;19926;-67
2024/02/19 05:56:26;;;;;;;;;;;;;;;24.08;35.95;102782.38;4132243;28;20021;-67
2024/02/19 05:58:28;;;;;;;;;;;;;;;24.10;36.29;102788.53;4132280;28;19957;-68
2024/02/19 06:00:29;;;;;;;;;;;;;;;24.11;36.17;102778.66;4114906;28;20347;-67
2024/02/19 06:02:31;;;;;;;;;;;;;;;24.12;36.24;102777.69;4131788;28;19985;-66
2024/02/19 06:04:33;;;;;;;;;;;;;;;24.13;36.15;102771.38;4132122;28;19932;-67
2024/02/19 06:06:35;;;;;;;;;;;;;;;24.13;35.84;102776.75;4131921;28;19926;-68
2024/02/19 06:08:37;;;;;;;;;;;;;;;24.13;35.96;102788.34;4131818;28;19953;-68
2024/02/19 06:10:38;;;;;;;;;;;;;;;24.14;35.79;102786.53;4132143;28;19926;-67
2024/02/19 06:12:40;;;;;;;;;;;;;;;24.14;36.06;102786.53;4131927;28;20008;-67
2024/02/19 06:14:42;;;;;;;;;;;;;;;24.13;35.71;102782.13;4131723;28;19985;-67
2024/02/19 06:16:43;;;;;;;;;;;;;;;24.13;36.14;102772.22;4131535;28;19949;-67
2024/02/19 06:18:45;;;;;;;;;;;;;;;24.12;35.94;102764.25;4131974;28;19952;-68
2024/02/19 06:20:47;;;;;;;;;;;;;;;24.11;36.04;102767.88;4131878;28;19948;-69
2024/02/19 06:22:49;;;;;;;;;;;;;;;24.10;36.06;102769.72;4114718;28;20399;-67
2024/02/19 06:24:51;;;;;;;;;;;;;;;24.11;36.10;102767.88;4131850;28;19926;-68
2024/02/19 06:26:52;;;;;;;;;;;;;;;24.11;36.06;102774.16;4131836;28;19932;-68
2024/02/19 06:28:54;;;;;;;;;;;;;;;24.12;35.76;102775.88;4131891;28;19932;-67
2024/02/19 06:30:56;;;;;;;;;;;;;;;24.12;35.92;102770.50;4131672;28;19926;-67
2024/02/19 06:32:57;;;;;;;;;;;;;;;24.12;35.87;102764.25;4131663;28;19930;-67
2024/02/19 06:34:59;;;;;;;;;;;;;;;24.12;35.69;102769.63;4131885;28;20384;-66
2024/02/19 06:37:01;;;;;;;;;;;;;;;24.11;35.67;102773.28;4131761;28;19926;-65
2024/02/19 06:39:02;;;;;;;;;;;;;;;24.11;35.91;102773.28;4131485;28;19925;-67
2024/02/19 06:41:04;;;;;;;;;;;;;;;24.10;35.97;102785.84;4131706;28;19926;-68
2024/02/19 06:43:05;;;;;;;;;;;;;;;24.09;36.01;102782.28;4131624;28;19926;-67
2024/02/19 06:45:07;;;;;;;;;;;;;;;24.08;35.87;102782.38;4133716;28;19929;-68
2024/02/19 06:47:09;;;;;;;;;;;;;;;24.06;35.93;102771.75;4134901;28;19961;-67
2024/02/19 06:49:10;;;;;;;;;;;;;;;24.04;35.66;102767.41;4135268;28;19929;-67
2024/02/19 06:51:12;;;;;;;;;;;;;;;24.03;35.82;102761.16;4134925;28;20028;-67
2024/02/19 06:53:13;;;;;;;;;;;;;;;24.03;35.61;102761.16;4134847;28;19926;-68
2024/02/19 06:55:15;;;;;;;;;;;;;;;24.04;35.77;102757.50;4117622;28;19963;-67
2024/02/19 06:57:17;;;;;;;;;;;;;;;24.04;35.97;102754.81;4135011;28;19926;-68
2024/02/19 06:59:19;;;;;;;;;;;;;;;24.04;35.95;102753.97;4134490;28;19929;-65
2024/02/19 07:01:20;;;;;;;;;;;;;;;24.03;35.96;102739.66;4134906;28;19933;-67
2024/02/19 07:03:22;;;;;;;;;;;;;;;23.90;35.81;102719.81;4134905;28;19929;-68
2024/02/19 07:05:24;;;;;;;;;;;;;;;24.02;35.72;102737.94;4134780;28;20021;-67
2024/02/19 07:07:26;;;;;;;;;;;;;;;24.01;35.95;102736.22;4134704;28;19973;-67
2024/02/19 07:09:28;;;;;;;;;;;;;;;24.00;36.13;102734.47;4134642;28;20307;-67
2024/02/19 07:11:29;;;;;;;;;;;;;;;23.99;35.79;102732.75;4117398;28;20430;-67
2024/02/19 07:13:31;;;;;;;;;;;;;;;23.97;35.76;102736.50;4134361;28;19954;-68
2024/02/19 07:15:33;;;;;;;;;;;;;;;23.95;35.71;102752.72;4134639;28;19936;-67
2024/02/19 07:17:35;;;;;;;;;;;;;;;23.92;36.13;102755.53;4134552;28;20272;-68
2024/02/19 07:19:36;;;;;;;;;;;;;;;23.91;35.80;102749.31;4134545;28;19980;-67
2024/02/19 07:21:38;;;;;;;;;;;;;;;23.92;36.09;102752.84;4134587;28;19985;-68
2024/02/19 07:23:40;;;;;;;;;;;;;;;23.93;36.10;102757.31;4134285;28;19932;-67
2024/02/19 07:25:41;;;;;;;;;;;;;;;23.93;36.04;102757.31;4134565;28;19932;-67
2024/02/19 07:27:43;;;;;;;;;;;;;;;23.94;36.16;102756.34;4134548;28;19926;-67
2024/02/19 07:29:44;;;;;;;;;;;;;;;23.95;35.79;102757.22;4134247;28;20340;-67
2024/02/19 07:31:46;;;;;;;;;;;;;;;23.95;36.04;102773.34;4134477;28;19953;-67
2024/02/19 07:33:49;;;;;;;;;;;;;;;23.94;35.86;102775.16;4133840;28;20288;-66
2024/02/19 07:35:51;;;;;;;;;;;;;;;23.93;35.92;102782.34;4134357;28;19933;-65
2024/02/19 07:37:53;;;;;;;;;;;;;;;23.92;36.16;102788.69;4134149;28;19929;-66
2024/02/19 07:39:54;;;;;;;;;;;;;;;23.91;36.13;102795.00;4134089;28;19980;-66
2024/02/19 07:41:56;;;;;;;;;;;;;;;23.90;36.07;102797.75;4134190;28;20008;-66
2024/02/19 07:43:57;;;;;;;;;;;;;;;23.88;35.96;102794.31;4133562;28;19926;-66
2024/02/19 07:45:59;;;;;;;;;;;;;;;23.88;35.96;102807.75;4133966;28;19930;-67
2024/02/19 07:48:02;;;;;;;;;;;;;;;23.87;35.96;102809.56;4134264;28;19926;-66
2024/02/19 07:50:04;;;;;;;;;;;;;;;23.87;36.19;102809.56;4134165;28;19925;-65
2024/02/19 07:52:06;;;;;;;;;;;;;;;23.88;35.91;102818.50;4134099;28;19926;-66
2024/02/19 07:54:08;;;;;;;;;;;;;;;23.88;36.14;102816.66;4133853;28;19964;-66
2024/02/19 07:56:09;;;;;;;;;;;;;;;23.90;35.97;102813.88;4133468;28;19932;-66
2024/02/19 07:58:13;;;;;;;;;;;;;;;23.91;36.18;102818.31;4133802;28;19930;-65
2024/02/19 08:00:15;;;;;;;;;;;;;;;23.92;36.19;102825.41;4133979;28;19925;-65
2024/02/19 08:02:17;;;;;;;;;;;;;;;23.92;35.83;102830.78;4134079;28;19997;-66
2024/02/19 08:04:19;;;;;;;;;;;;;;;23.93;35.89;102827.19;4133827;28;19933;-66
2024/02/19 08:06:21;;;;;;;;;;;;;;;23.91;35.97;102819.19;4134011;28;19975;-66
2024/02/19 08:08:23;;;;;;;;;;;;;;;23.90;36.13;102805.81;4133706;28;19936;-66
2024/02/19 08:10:24;;;;;;;;;;;;;;;23.90;36.07;102805.81;4133917;28;20088;-65
2024/02/19 08:12:26;;;;;;;;;;;;;;;23.90;35.78;102805.81;4133443;28;19925;-65
2024/02/19 08:14:28;;;;;;;;;;;;;;;23.89;36.06;102807.66;4133533;28;19928;-65
2024/02/19 08:16:29;;;;;;;;;;;;;;;23.89;36.18;102807.66;4133553;28;19930;-65
2024/02/19 08:18:31;;;;;;;;;;;;;;;23.90;36.15;102821.94;4133675;28;19929;-65
2024/02/19 08:20:33;;;;;;;;;;;;;;;23.91;35.76;102821.88;4133511;28;19930;-65
2024/02/19 08:22:35;;;;;;;;;;;;;;;23.92;35.94;102804.81;4133603;28;19926;-65
2024/02/19 08:24:37;;;;;;;;;;;;;;;23.95;35.93;102797.53;4133399;28;19969;-65
2024/02/19 08:26:38;;;;;;;;;;;;;;;23.95;36.04;102797.53;4133089;28;19925;-66
2024/02/19 08:28:40;;;;;;;;;;;;;;;23.96;35.76;102785.81;4133447;28;20462;-66
2024/02/19 08:30:41;;;;;;;;;;;;;;;23.96;35.87;102767.00;4133664;28;19930;-67
2024/02/19 08:32:43;;;;;;;;;;;;;;;23.96;35.69;102765.16;4133271;28;19957;-66
2024/02/19 08:34:44;;;;;;;;;;;;;;;23.97;35.98;102779.50;4133445;28;19951;-66
2024/02/19 08:36:46;;;;;;;;;;;;;;;23.96;35.94;102781.28;4133403;28;19925;-65
2024/02/19 08:38:54;;;;;;;;;;;;;;;23.95;35.99;102774.22;4133225;28;19925;-66
2024/02/19 08:40:56;;;;;;;;;;;;;;;23.95;35.56;102773.34;4133081;28;19925;-65
2024/02/19 08:42:57;;;;;;;;;;;;;;;23.95;35.74;102770.66;4133341;28;20375;-66
2024/02/19 08:44:59;;;;;;;;;;;;;;;23.95;36.07;102758.09;4115887;28;19930;-65
2024/02/19 08:47:07;;;;;;;;;;;;;;;23.95;36.06;102752.72;4133024;28;19957;-65
2024/02/19 08:49:09;;;;;;;;;;;;;;;23.96;35.89;102748.19;4133066;28;20363;-66
2024/02/19 08:51:11;;;;;;;;;;;;;;;23.97;35.99;102752.63;4133084;28;20008;-66
2024/02/19 08:53:14;;;;;;;;;;;;;;;23.98;35.83;102747.13;4115988;28;19961;-66
2024/02/19 08:55:16;;;;;;;;;;;;;;;24.00;35.96;102739.84;4132787;28;20256;-66
2024/02/19 08:57:18;;;;;;;;;;;;;;;24.01;35.60;102746.97;4132999;28;19930;-66
2024/02/19 08:59:19;;;;;;;;;;;;;;;24.03;35.79;102746.88;4132906;28;19961;-66
2024/02/19 09:01:21;;;;;;;;;;;;;;;24.02;35.55;102763.94;4133001;28;19926;-66
2024/02/19 09:03:24;;;;;;;;;;;;;;;24.03;35.61;102768.38;4115603;28;19934;-66
2024/02/19 09:05:25;;;;;;;;;;;;;;;24.03;35.80;102777.28;4132821;28;19929;-66
2024/02/19 09:07:27;;;;;;;;;;;;;;;24.03;35.94;102765.69;4132263;28;20344;-66
2024/02/19 09:09:29;;;;;;;;;;;;;;;24.03;35.64;102773.75;4132226;28;20403;-66
2024/02/19 09:11:30;;;;;;;;;;;;;;;24.02;35.76;102769.31;4132856;28;19926;-66
2024/02/19 09:13:33;;;;;;;;;;;;;;;24.03;35.77;102782.66;4132556;28;19925;-66
2024/02/19 09:15:34;;;;;;;;;;;;;;;24.02;35.64;102788.13;4132898;28;19930;-66
2024/02/19 09:17:36;;;;;;;;;;;;;;;24.03;35.64;102804.16;4132824;28;19980;-66
2024/02/19 09:19:37;;;;;;;;;;;;;;;24.04;35.63;102822.03;4132913;28;19933;-66
2024/02/19 09:21:39;;;;;;;;;;;;;;;24.05;35.81;102820.22;4132487;28;19926;-67
2024/02/19 09:23:43;;;;;;;;;;;;;;;24.04;35.84;102822.03;4132456;28;19929;-67
2024/02/19 09:25:45;;;;;;;;;;;;;;;24.05;35.59;102821.06;4132246;28;19965;-67
2024/02/19 09:27:47;;;;;;;;;;;;;;;24.08;35.53;102825.41;4132716;28;19965;-66
2024/02/19 09:29:49;;;;;;;;;;;;;;;24.07;35.83;102829.94;4132189;28;19926;-67
2024/02/19 09:31:51;;;;;;;;;;;;;;;24.09;35.70;102835.19;4132723;28;19949;-67
2024/02/19 09:33:53;;;;;;;;;;;;;;;24.09;35.75;102833.38;4132204;28;19973;-67
2024/02/19 09:35:55;;;;;;;;;;;;;;;24.08;35.72;102825.41;4132522;28;19933;-65
2024/02/19 09:37:57;;;;;;;;;;;;;;;24.08;35.72;102836.16;4132309;28;20021;-67
2024/02/19 09:39:58;;;;;;;;;;;;;;;24.08;35.53;102836.16;4132335;28;20370;-68
2024/02/19 09:42:00;;;;;;;;;;;;;;;24.07;35.76;102829.94;4132363;28;20255;-68
2024/02/19 09:44:02;;;;;;;;;;;;;;;24.09;35.39;102833.38;4115187;28;19933;-68
2024/02/19 09:46:07;;;;;;;;;;;;;;;24.11;35.52;102835.97;4132288;28;20029;-65
2024/02/19 09:48:12;;;;;;;;;;;;;;;24.12;35.34;102831.47;4132331;28;19971;-66
2024/02/19 09:50:14;;;;;;;;;;;;;;;24.13;35.45;102833.19;4132627;28;19930;-67
2024/02/19 09:52:23;;;;;;;;;;;;;;;24.13;35.62;102836.72;4132146;28;19933;-67
2024/02/19 09:54:30;;;;;;;;;;;;;;;24.15;35.63;102831.28;4115412;28;20461;-67
2024/02/19 09:56:33;;;;;;;;;;;;;;;24.13;35.30;102842.13;4132112;28;19984;-67
2024/02/19 09:58:35;;;;;;;;;;;;;;;24.16;35.40;102854.53;4132313;28;19926;-67
2024/02/19 10:00:39;;;;;;;;;;;;;;;24.15;35.35;102847.41;4132106;28;20005;-68
2024/02/19 10:02:41;;;;;;;;;;;;;;;24.14;35.44;102843.00;4132298;28;19926;-68
2024/02/19 10:04:42;;;;;;;;;;;;;;;24.14;35.23;102840.31;4132131;28;20020;-68
2024/02/19 10:06:45;;;;;;;;;;;;;;;24.14;35.31;102835.78;4131958;28;20307;-68
2024/02/19 10:08:47;;;;;;;;;;;;;;;24.14;35.20;102826.88;4131796;28;19933;-68
2024/02/19 10:10:54;;;;;;;;;;;;;;;24.14;35.59;102843.84;4131902;28;19926;-68
2024/02/19 10:12:55;;;;;;;;;;;;;;;24.14;35.48;102840.31;4131995;28;19926;-66
2024/02/19 10:14:57;;;;;;;;;;;;;;;24.14;35.29;102846.53;4132262;28;19932;-67
2024/02/19 10:17:00;;;;;;;;;;;;;;;24.14;35.38;102841.16;4131829;28;20005;-67
2024/02/19 10:19:02;;;;;;;;;;;;;;;24.14;35.63;102846.53;4131614;28;19925;-67
2024/02/19 10:21:04;;;;;;;;;;;;;;;24.15;35.34;102844.72;4131995;28;19960;-68
2024/02/19 10:23:06;;;;;;;;;;;;;;;24.14;35.48;102848.38;4131521;28;20429;-65
2024/02/19 10:25:07;;;;;;;;;;;;;;;24.15;35.53;102842.03;4131765;28;19929;-66